Time;durP1;ratioP1;P1;durP2;ratioP2;P2;SDS_P1;SDS_P2;PMS_P1;PMS_P2;Temp;Humidity;BMP_temperature;BMP_pressure;BME280_temperature;BME280_humidity;BME280_pressure;Samples;Min_cycle;Max_cycle;Signal;HPM_P1;HPM_P2
2021/03/23 00:01:47;;;;;;;1.90;1.00;;;;;;;17.52;53.89;102673.84;6247570;22;20015;-79
2021/03/23 00:04:17;;;;;;;1.75;1.00;;;;;;;17.50;53.75;102676.41;6242129;22;20028;-79
2021/03/23 00:06:48;;;;;;;1.77;1.10;;;;;;;17.50;53.77;102671.19;6247078;22;20019;-79
2021/03/23 00:09:52;;;;;;;2.58;1.10;;;;;;;17.50;53.83;102673.78;6247709;22;19999;-80
2021/03/23 00:12:55;;;;;;;2.63;1.10;;;;;;;17.51;53.86;102672.97;6245741;23;20035;-79
2021/03/23 00:15:22;;;;;;;2.40;1.30;;;;;;;17.50;54.04;102665.97;6246793;22;20008;-80
2021/03/23 00:37:19;;;;;;;3.28;1.00;;;;;;;17.49;53.49;102664.25;6252979;22;20011;-80
2021/03/23 00:40:09;;;;;;;3.47;1.05;;;;;;;17.48;53.45;102654.66;6277193;22;19987;-81
2021/03/23 00:42:40;;;;;;;2.05;1.05;;;;;;;17.47;53.79;102658.13;6210996;23;20097;-80
2021/03/23 00:45:09;;;;;;;1.38;1.00;;;;;;;17.47;53.63;102655.53;6161428;23;20009;-80
2021/03/23 00:47:55;;;;;;;3.75;1.10;;;;;;;17.48;53.45;102660.78;6232658;22;20080;-80
2021/03/23 00:50:54;;;;;;;1.73;1.00;;;;;;;17.50;53.52;102654.69;6268206;22;20073;-79
2021/03/23 00:53:21;;;;;;;1.95;1.00;;;;;;;17.47;53.55;102647.72;6238832;23;20048;-80
2021/03/23 00:55:50;;;;;;;1.83;1.10;;;;;;;17.46;53.47;102652.06;6239084;23;20005;-80
2021/03/23 00:58:27;;;;;;;1.10;0.93;;;;;;;17.48;53.50;102654.66;6238067;23;20012;-79
2021/03/23 01:01:12;;;;;;;1.80;1.10;;;;;;;17.48;53.45;102652.97;6240169;23;20001;-80
2021/03/23 01:04:08;;;;;;;1.80;1.10;;;;;;;17.48;53.61;102654.66;6250505;22;20023;-80
2021/03/23 01:06:33;;;;;;;1.63;1.00;;;;;;;17.47;53.41;102645.97;6211686;23;20012;-80
2021/03/23 01:09:05;;;;;;;1.63;1.00;;;;;;;17.43;53.29;102641.56;6214679;22;20463;-80
2021/03/23 01:11:38;;;;;;;2.00;1.05;;;;;;;17.46;53.49;102648.53;6271096;22;19996;-80
2021/03/23 01:17:33;;;;;;;1.98;1.13;;;;;;;17.43;53.66;102636.34;6270991;22;20035;-79
2021/03/23 01:20:05;;;;;;;1.52;1.00;;;;;;;17.42;53.23;102634.63;6255867;22;20016;-79
2021/03/23 01:22:36;;;;;;;1.58;0.90;;;;;;;17.46;53.43;102641.66;6273763;22;20015;-80
2021/03/23 01:25:12;;;;;;;2.28;1.13;;;;;;;17.43;53.35;102633.75;6262246;22;20448;-80
2021/03/23 01:27:48;;;;;;;1.30;0.90;;;;;;;17.44;53.09;102632.03;6238047;23;20008;-79
2021/03/23 01:30:15;;;;;;;1.70;1.00;;;;;;;17.42;53.41;102629.41;6239199;23;20001;-79
2021/03/23 01:32:42;;;;;;;2.78;1.10;;;;;;;17.41;53.24;102630.25;6210848;23;20464;-80
2021/03/23 01:37:41;;;;;;;2.03;1.20;;;;;;;17.40;53.17;102628.50;6295092;22;20020;-80
2021/03/23 01:40:10;;;;;;;2.47;1.20;;;;;;;17.42;53.25;102628.50;6298469;22;20414;-80
2021/03/23 01:42:48;;;;;;;1.52;0.80;;;;;;;17.41;53.19;102626.78;6245056;22;20004;-80
2021/03/23 01:45:44;;;;;;;1.42;0.93;;;;;;;17.40;53.19;102628.50;6233064;22;20016;-80
2021/03/23 01:51:03;;;;;;;2.55;1.27;;;;;;;17.40;53.34;102620.69;6294079;22;20030;-80
2021/03/23 01:53:58;;;;;;;1.88;1.20;;;;;;;17.41;53.33;102621.56;6262169;23;20035;-79
2021/03/23 01:56:26;;;;;;;1.75;1.17;;;;;;;17.39;53.19;102610.25;6265533;22;20004;-80
2021/03/23 01:58:58;;;;;;;2.85;1.02;;;;;;;17.38;53.18;102606.78;6262361;23;20011;-80
2021/03/23 02:01:26;;;;;;;1.88;1.05;;;;;;;17.36;52.91;102597.19;6264545;22;20060;-80
2021/03/23 02:03:55;;;;;;;1.20;0.98;;;;;;;17.37;53.13;102604.13;6263178;22;20004;-79
2021/03/23 02:06:30;;;;;;;1.98;1.25;;;;;;;17.39;53.00;102602.44;6262163;22;20026;-80
2021/03/23 02:09:05;;;;;;;1.98;1.10;;;;;;;17.37;53.14;102599.78;6293694;22;20100;-79
2021/03/23 02:11:34;;;;;;;3.30;1.10;;;;;;;17.38;53.11;102606.78;6230423;22;20106;-80
2021/03/23 02:14:18;;;;;;;1.35;0.90;;;;;;;17.38;53.21;102601.56;6295197;22;20398;-80
2021/03/23 02:17:09;;;;;;;1.38;1.02;;;;;;;17.38;52.97;102603.31;6296560;22;20015;-80
2021/03/23 02:19:43;;;;;;;1.90;1.17;;;;;;;17.37;52.97;102592.00;6268846;22;20000;-79
2021/03/23 02:22:47;;;;;;;1.15;0.90;;;;;;;17.37;53.16;102596.31;6239139;22;20020;-80
2021/03/23 02:25:39;;;;;;;1.83;1.05;;;;;;;17.35;53.06;102587.59;6267140;22;20020;-80
2021/03/23 02:30:45;;;;;;;1.42;1.00;;;;;;;17.36;52.83;102586.78;6292797;22;20018;-80
2021/03/23 02:33:12;;;;;;;1.73;1.10;;;;;;;17.34;52.93;102584.13;6269071;22;19992;-80
2021/03/23 02:35:44;;;;;;;1.80;1.05;;;;;;;17.32;52.87;102585.84;6296187;22;19998;-79
2021/03/23 02:38:17;;;;;;;2.38;1.23;;;;;;;17.34;52.91;102573.72;6268013;22;20004;-79
2021/03/23 02:40:44;;;;;;;1.50;1.17;;;;;;;17.33;52.80;102584.97;6270675;22;19999;-79
2021/03/23 02:46:32;;;;;;;1.73;1.10;;;;;;;17.33;53.08;102584.09;6299456;22;20019;-80
2021/03/23 02:51:41;;;;;;;2.25;1.30;;;;;;;17.30;52.87;102561.50;6297062;22;20028;-80
2021/03/23 02:54:19;;;;;;;1.60;1.15;;;;;;;17.31;52.90;102568.47;6205427;23;20095;-80
2021/03/23 02:56:47;;;;;;;2.03;1.33;;;;;;;17.31;52.69;102567.56;6182360;23;20050;-80
2021/03/23 02:59:14;;;;;;;2.20;1.30;;;;;;;17.30;52.85;102573.66;6184956;23;20005;-79
2021/03/23 03:01:50;;;;;;;3.08;1.40;;;;;;;17.31;52.70;102572.78;6225634;22;20055;-80
2021/03/23 03:04:18;;;;;;;1.35;1.02;;;;;;;17.30;52.72;102574.50;6268442;23;20066;-79
2021/03/23 03:06:47;;;;;;;3.00;1.20;;;;;;;17.33;52.99;102571.09;6273686;22;20016;-80
2021/03/23 03:09:29;;;;;;;1.52;1.02;;;;;;;17.30;52.79;102576.25;6276955;22;20001;-80
2021/03/23 03:14:33;;;;;;;1.83;1.08;;;;;;;17.32;52.80;102580.63;6319947;22;20020;-79
2021/03/23 03:17:01;;;;;;;1.80;1.20;;;;;;;17.31;52.80;102581.50;6245319;23;20020;-79
2021/03/23 03:19:30;;;;;;;1.98;1.10;;;;;;;17.28;52.72;102576.22;6271090;22;20007;-79
2021/03/23 03:21:56;;;;;;;1.40;1.20;;;;;;;17.28;52.81;102576.22;6269890;23;20489;-79
2021/03/23 03:24:23;;;;;;;2.28;1.50;;;;;;;17.28;52.75;102571.00;6270852;23;20007;-79
2021/03/23 03:26:49;;;;;;;2.40;1.00;;;;;;;17.29;52.78;102575.38;6269060;23;20060;-79
2021/03/23 03:29:14;;;;;;;1.65;1.25;;;;;;;17.27;52.76;102580.53;6268273;23;20384;-81
2021/03/23 03:31:42;;;;;;;2.17;1.08;;;;;;;17.29;52.67;102564.97;6268025;23;19992;-80
2021/03/23 03:34:12;;;;;;;1.73;1.10;;;;;;;17.27;52.67;102562.31;6288783;22;20027;-79
2021/03/23 03:36:38;;;;;;;1.63;1.17;;;;;;;17.28;52.57;102556.25;6248277;22;20007;-79
2021/03/23 03:39:06;;;;;;;1.88;1.20;;;;;;;17.25;52.75;102553.63;6296609;22;20081;-80
2021/03/23 03:41:39;;;;;;;2.03;1.35;;;;;;;17.26;52.62;102550.16;6242376;22;20039;-80
2021/03/23 03:44:06;;;;;;;1.67;1.23;;;;;;;17.28;52.85;102558.84;6298380;22;20000;-79
2021/03/23 03:46:38;;;;;;;1.63;1.20;;;;;;;17.29;52.73;102554.56;6245160;22;20022;-80
2021/03/23 03:49:13;;;;;;;2.20;1.48;;;;;;;17.26;52.75;102551.88;6264236;22;20020;-80
2021/03/23 03:51:43;;;;;;;2.30;1.00;;;;;;;17.25;52.54;102551.00;6246395;22;20017;-79
2021/03/23 03:54:14;;;;;;;2.72;1.20;;;;;;;17.26;52.61;102549.28;6097381;23;2954421;-79
2021/03/23 03:56:47;;;;;;;1.42;1.00;;;;;;;17.24;52.78;102548.38;6216749;22;20015;-80
2021/03/23 04:01:50;;;;;;;2.75;1.40;;;;;;;17.25;52.63;102547.53;6286234;22;20020;-80
2021/03/23 04:04:16;;;;;;;1.75;1.08;;;;;;;17.22;52.69;102544.84;6267355;22;20016;-79
2021/03/23 04:07:04;;;;;;;1.52;0.88;;;;;;;17.21;52.62;102537.91;6268030;22;20000;-79
2021/03/23 04:09:49;;;;;;;2.05;1.15;;;;;;;17.25;52.48;102552.75;6250222;22;20377;-80
2021/03/23 04:12:29;;;;;;;2.75;1.17;;;;;;;17.22;52.63;102550.97;6295876;22;20346;-80
2021/03/23 04:15:00;;;;;;;1.90;1.30;;;;;;;17.22;52.50;102553.56;6266570;22;20008;-79
2021/03/23 04:17:44;;;;;;;2.38;1.17;;;;;;;17.20;52.66;102544.84;6252013;22;20005;-79
2021/03/23 04:20:15;;;;;;;1.83;1.10;;;;;;;17.22;52.60;102553.56;6245993;23;20004;-80
2021/03/23 04:22:51;;;;;;;2.00;1.05;;;;;;;17.20;52.47;102549.16;6247688;23;20153;-79
2021/03/23 04:25:20;;;;;;;1.45;1.13;;;;;;;17.20;52.59;102559.56;6243371;23;20015;-80
2021/03/23 04:28:28;;;;;;;1.83;1.13;;;;;;;17.18;52.75;102543.94;6232604;22;21672;-79
2021/03/23 04:30:57;;;;;;;3.70;1.10;;;;;;;17.20;52.76;102559.56;6181932;23;20022;-78
2021/03/23 04:36:53;;;;;;;1.73;1.23;;;;;;;17.18;52.73;102567.34;6266976;22;20042;-79
2021/03/23 04:39:19;;;;;;;2.70;1.20;;;;;;;17.19;52.47;102568.22;6280269;22;19988;-79
2021/03/23 04:44:40;;;;;;;1.98;1.30;;;;;;;17.18;52.67;102563.84;6299868;22;20008;-80
2021/03/23 04:47:40;;;;;;;2.53;1.40;;;;;;;17.19;52.48;102569.09;6304939;22;20003;-79
2021/03/23 04:50:40;;;;;;;3.05;1.20;;;;;;;17.20;52.52;102567.38;6279347;22;19988;-79
2021/03/23 04:53:20;;;;;;;1.55;1.05;;;;;;;17.18;52.73;102558.66;6252694;22;20111;-80
2021/03/23 04:55:49;;;;;;;1.65;1.13;;;;;;;17.19;52.51;102565.63;6242540;23;20017;-80
2021/03/23 04:58:29;;;;;;;1.92;1.30;;;;;;;17.21;52.58;102567.41;6243018;23;20009;-81
2021/03/23 05:01:16;;;;;;;1.85;1.20;;;;;;;17.22;52.55;102563.06;6267233;22;20020;-81
2021/03/23 05:03:48;;;;;;;2.55;1.55;;;;;;;17.20;52.71;102562.16;6278519;22;20019;-81
2021/03/23 05:06:47;;;;;;;3.22;1.40;;;;;;;17.25;52.60;102557.94;6303998;22;20007;-79
2021/03/23 05:09:15;;;;;;;4.05;1.80;;;;;;;17.22;53.00;102561.38;6304726;22;20089;-81
2021/03/23 05:11:55;;;;;;;2.30;1.50;;;;;;;17.21;52.94;102550.94;6282365;22;20015;-79
2021/03/23 05:14:30;;;;;;;1.35;1.25;;;;;;;17.25;52.81;102556.22;6269681;22;20000;-81
2021/03/23 05:17:51;;;;;;;2.72;1.20;;;;;;;17.26;52.70;102554.47;6265764;22;20020;-81
2021/03/23 05:20:41;;;;;;;2.05;1.33;;;;;;;17.28;52.81;102563.19;6123614;23;20022;-81
2021/03/23 05:32:02;;;;;;;1.80;1.38;;;;;;;17.29;53.04;102559.75;6304220;22;20030;-80
2021/03/23 05:37:26;;;;;;;2.20;1.30;;;;;;;17.28;52.83;102551.06;6273063;22;20092;-80
2021/03/23 05:40:51;;;;;;;4.32;1.40;;;;;;;17.32;53.00;102553.75;6254577;22;20007;-79
2021/03/23 05:47:12;;;;;;;1.92;1.23;;;;;;;17.33;53.17;102571.09;6112806;23;20029;-81
2021/03/23 05:50:12;;;;;;;2.30;1.20;;;;;;;17.34;52.96;102572.84;6125135;23;20022;-81
2021/03/23 05:55:57;;;;;;;1.40;1.15;;;;;;;17.34;53.02;102581.53;6302968;22;19922;-81
2021/03/23 06:01:46;;;;;;;1.45;1.10;;;;;;;17.36;52.76;102576.38;6255556;22;20008;-80
2021/03/23 06:04:57;;;;;;;2.65;1.20;;;;;;;17.40;52.98;102579.06;6267807;22;20035;-80
2021/03/23 06:08:06;;;;;;;2.65;1.30;;;;;;;17.42;53.03;102571.25;6229270;22;20059;-80
2021/03/23 06:11:11;;;;;;;8.43;1.65;;;;;;;17.42;52.88;102576.47;6295688;22;20095;-81
2021/03/23 06:13:53;;;;;;;8.48;1.30;;;;;;;17.40;53.10;102571.25;6305386;22;19991;-81
2021/03/23 06:33:03;;;;;;;19.20;4.00;;;;;;;17.71;53.08;102577.00;6264963;22;19999;31
2021/03/23 08:52:04;;;;;;;4.50;2.78;;;;;;;18.37;51.63;102611.97;6252309;22;20145;-83
2021/03/23 08:55:08;;;;;;;3.30;2.97;;;;;;;18.78;50.41;102611.75;6189785;23;20043;-83
2021/03/23 09:00:57;;;;;;;3.67;2.80;;;;;;;19.03;50.03;102617.28;6224432;22;20074;-86
2021/03/23 09:03:50;;;;;;;5.88;2.88;;;;;;;19.07;49.93;102622.53;6195366;23;20016;-87
2021/03/23 09:06:18;;;;;;;4.22;3.22;;;;;;;19.01;50.09;102624.19;6196855;23;20061;-83
2021/03/23 09:08:48;;;;;;;3.95;2.78;;;;;;;18.96;50.01;102618.94;6175337;23;20039;-84
2021/03/23 09:11:34;;;;;;;4.30;3.00;;;;;;;19.01;50.19;102614.66;6174887;23;20015;-87
2021/03/23 09:14:06;;;;;;;3.22;2.55;;;;;;;19.04;49.95;102622.53;6222196;23;20009;-85
2021/03/23 09:17:02;;;;;;;4.68;2.92;;;;;;;19.02;49.98;102619.00;6222821;23;20005;-85
2021/03/23 09:19:47;;;;;;;3.97;2.58;;;;;;;19.02;49.93;102618.16;6199665;23;20035;-84
2021/03/23 09:22:32;;;;;;;3.72;2.80;;;;;;;18.98;50.00;102629.41;6224999;23;20016;-85
2021/03/23 09:28:46;;;;;;;3.22;2.42;;;;;;;18.97;50.00;102623.31;6261527;23;20023;-86
2021/03/23 09:31:40;;;;;;;3.20;2.55;;;;;;;18.94;50.09;102619.78;6234259;23;20004;-85
2021/03/23 09:34:45;;;;;;;3.50;2.75;;;;;;;18.93;50.15;102618.91;6229730;23;20008;-86
2021/03/23 09:37:49;;;;;;;3.55;2.70;;;;;;;18.91;50.11;102621.47;6259215;23;20008;-83
2021/03/23 09:40:20;;;;;;;3.05;2.50;;;;;;;18.94;50.21;102622.38;6262597;23;20023;-84
2021/03/23 09:43:31;;;;;;;3.42;2.35;;;;;;;18.92;50.31;102622.34;6237310;23;20008;-86
2021/03/23 09:46:06;;;;;;;3.42;2.63;;;;;;;18.90;50.14;102626.66;6261123;23;20008;-83
2021/03/23 09:49:17;;;;;;;2.90;2.47;;;;;;;18.81;50.42;102627.41;6235930;23;20012;-81
2021/03/23 09:52:05;;;;;;;2.80;2.47;;;;;;;18.80;50.29;102625.69;6174923;23;20025;-81
2021/03/23 09:54:49;;;;;;;3.97;2.70;;;;;;;18.81;50.27;102630.03;6179353;23;20023;-82
2021/03/23 09:57:46;;;;;;;2.80;2.50;;;;;;;18.77;50.42;102625.63;6229487;22;20024;-79
2021/03/23 10:20:34;;;;;;;4.43;2.70;;;;;;;18.74;50.66;102640.34;6296818;22;20034;-82
2021/03/23 10:23:03;;;;;;;3.28;2.58;;;;;;;18.70;50.60;102629.88;6268120;23;20017;-84
2021/03/23 10:25:28;;;;;;;3.55;3.03;;;;;;;18.70;50.44;102640.31;6236671;23;20008;-85
2021/03/23 10:40:38;;;;;;;3.42;2.90;;;;;;;18.69;50.75;102646.34;6293361;22;20034;-85
2021/03/23 10:53:46;;;;;;;2.90;2.60;;;;;;;18.73;50.65;102643.78;6296216;22;20042;-84
2021/03/23 11:12:59;;;;;;;3.42;2.95;;;;;;;18.60;50.70;102633.19;6297929;22;20034;-84
2021/03/23 11:54:30;;;;;;;5.03;3.35;;;;;;;18.83;50.37;102632.66;6294040;22;20099;-87
2021/03/23 12:17:21;;;;;;;3.53;2.80;;;;;;;18.89;50.70;102638.84;6287282;22;20011;-83
2021/03/23 12:28:19;;;;;;;3.20;2.80;;;;;;;18.92;50.77;102630.19;6297958;22;20045;-85
2021/03/23 12:30:45;;;;;;;2.70;2.40;;;;;;;18.96;50.58;102626.75;6272347;22;20016;-84
2021/03/23 12:33:10;;;;;;;2.97;2.33;;;;;;;18.95;50.44;102617.19;6267159;23;19998;-87
2021/03/23 12:35:38;;;;;;;3.45;2.78;;;;;;;18.96;50.57;102615.44;6216003;23;20042;-86
2021/03/23 12:47:01;;;;;;;2.70;2.33;;;;;;;19.00;50.61;102612.91;6298822;22;20046;-83
2021/03/23 12:49:26;;;;;;;3.47;2.22;;;;;;;19.03;50.60;102606.84;6271103;22;20000;-84
2021/03/23 13:08:44;;;;;;;2.50;2.10;;;;;;;18.96;50.96;102585.00;6295411;22;20048;-87
2021/03/23 13:11:26;;;;;;;2.50;2.25;;;;;;;18.94;51.04;102588.47;6271588;22;20071;-83
2021/03/23 13:26:12;;;;;;;2.90;2.50;;;;;;;18.89;51.23;102572.75;6292065;22;20004;-85
2021/03/23 13:39:07;;;;;;;2.58;2.30;;;;;;;18.83;51.25;102563.13;6304773;22;20055;-87
2021/03/23 13:41:33;;;;;;;2.85;2.10;;;;;;;18.80;51.10;102567.44;6276936;22;20079;-85
2021/03/23 13:44:06;;;;;;;3.05;2.20;;;;;;;18.80;51.07;102559.59;6273929;22;20004;-87
2021/03/23 13:46:57;;;;;;;2.30;1.92;;;;;;;18.83;51.12;102564.84;6273571;22;20426;-84
2021/03/23 14:05:13;;;;;;;4.03;2.50;;;;;;;18.75;51.20;102551.69;6277171;22;20247;-83
2021/03/23 14:29:59;;;;;;;4.13;3.00;;;;;;;18.58;51.16;102545.38;6300018;22;20007;-81
2021/03/23 14:32:52;;;;;;;4.45;3.40;;;;;;;18.57;51.16;102538.41;6300036;22;20019;-82
2021/03/23 14:38:31;;;;;;;5.13;3.67;;;;;;;18.58;51.06;102530.59;6287460;22;20020;-80
2021/03/23 14:47:42;;;;;;;5.13;3.28;;;;;;;18.71;50.59;102529.03;6212082;23;20080;-82
2021/03/23 14:50:15;;;;;;;3.70;2.95;;;;;;;18.74;50.24;102530.81;6186111;23;20005;-83
2021/03/23 14:52:45;;;;;;;3.90;3.28;;;;;;;18.74;50.40;102525.59;6162018;23;20009;-84
2021/03/23 14:55:37;;;;;;;4.10;3.30;;;;;;;18.78;50.49;102524.81;6282320;22;20015;-84
2021/03/23 15:01:06;;;;;;;4.45;3.10;;;;;;;18.82;50.34;102524.84;6286273;22;20036;-84
2021/03/23 15:07:12;;;;;;;4.28;2.70;;;;;;;18.86;50.26;102523.19;6311652;22;20035;-83
2021/03/23 15:09:38;;;;;;;3.28;2.40;;;;;;;18.85;50.39;102521.41;6324839;22;20023;-84
2021/03/23 15:12:28;;;;;;;3.63;2.80;;;;;;;18.85;50.55;102516.19;6307129;22;20057;-83
2021/03/23 15:14:54;;;;;;;3.33;2.72;;;;;;;18.82;50.50;102504.00;6215312;23;20068;-82
2021/03/23 15:17:19;;;;;;;4.18;3.00;;;;;;;18.89;50.28;102512.75;6190891;23;20051;-86
2021/03/23 15:19:46;;;;;;;4.20;2.92;;;;;;;18.90;50.35;102517.09;6188429;23;20064;-84
2021/03/23 15:27:34;;;;;;;4.45;2.72;;;;;;;18.97;50.61;102508.50;6295589;22;20049;-85
2021/03/23 15:30:33;;;;;;;4.95;2.80;;;;;;;18.96;50.54;102517.19;6236870;23;20027;-86
2021/03/23 15:36:59;;;;;;;2.92;2.53;;;;;;;19.00;50.29;102507.66;6274894;22;20046;-84
2021/03/23 15:43:07;;;;;;;3.40;2.25;;;;;;;19.00;50.40;102503.31;6288341;22;20050;-82
2021/03/23 15:45:55;;;;;;;3.85;2.50;;;;;;;19.00;50.56;102507.66;6267441;22;20019;-82
2021/03/23 15:57:54;;;;;;;3.10;2.65;;;;;;;19.08;50.50;102493.84;6299843;22;20015;-82
2021/03/23 16:07:37;;;;;;;3.70;2.90;;;;;;;19.01;50.49;102486.81;6298922;22;20031;-84
2021/03/23 16:10:15;;;;;;;4.28;3.17;;;;;;;19.02;50.19;102485.94;6273514;22;20012;-84
2021/03/23 16:12:41;;;;;;;4.25;3.38;;;;;;;19.04;50.27;102484.22;6298565;22;19980;-84
2021/03/23 16:21:59;;;;;;;5.55;3.38;;;;;;;19.05;50.60;102486.00;6271335;22;20007;-84
2021/03/23 16:32:53;;;;;;;5.15;3.67;;;;;;;18.96;50.91;102477.19;6302390;22;20012;-84
2021/03/23 16:47:52;;;;;;;6.88;3.10;;;;;;;18.90;51.32;102480.59;6298306;22;20018;-83
2021/03/23 16:50:26;;;;;;;12.07;3.70;;;;;;;18.89;51.43;102476.25;6299948;22;20000;-81
2021/03/23 16:52:53;;;;;;;5.13;3.58;;;;;;;18.90;51.42;102483.19;6270234;22;20008;-82
2021/03/23 16:55:45;;;;;;;9.95;3.47;;;;;;;18.87;51.71;102484.03;6247111;22;20003;-84
2021/03/23 17:01:43;;;;;;;4.93;3.65;;;;;;;18.80;51.43;102486.59;6248332;22;20028;-81
2021/03/23 17:07:03;;;;;;;8.95;3.90;;;;;;;18.80;51.48;102497.00;6298143;22;20023;-81
2021/03/23 17:09:29;;;;;;;5.10;3.47;;;;;;;18.79;51.25;102496.16;6274138;22;20026;-81
2021/03/23 17:15:55;;;;;;;4.80;3.90;;;;;;;18.74;51.42;102499.50;6303133;22;20038;-82
2021/03/23 17:21:16;;;;;;;6.20;3.70;;;;;;;18.73;51.97;102506.47;6236021;23;20024;-82
2021/03/23 17:23:50;;;;;;;5.90;3.97;;;;;;;18.69;51.77;102502.94;6215220;23;20013;-80
2021/03/23 17:26:37;;;;;;;6.30;4.03;;;;;;;18.71;51.88;102503.84;6235656;23;20015;-81
2021/03/23 17:29:19;;;;;;;5.70;4.20;;;;;;;18.71;51.87;102505.56;6234843;23;20441;-82
2021/03/23 17:31:56;;;;;;;5.93;4.28;;;;;;;18.66;51.94;102502.91;6259842;23;20012;-81
2021/03/23 17:34:30;;;;;;;6.63;4.07;;;;;;;18.69;51.87;102509.88;6237876;23;20000;-82
2021/03/23 17:36:55;;;;;;;7.38;4.20;;;;;;;18.68;51.91;102502.91;6208498;23;20040;-82
2021/03/23 17:40:14;;;;;;;4.60;3.83;;;;;;;18.67;51.79;102515.06;6237163;23;20004;-81
2021/03/23 17:49:13;;;;;;;5.82;3.88;;;;;;;18.61;52.14;102512.38;6271533;23;20077;-82
2021/03/23 17:55:40;;;;;;;5.60;4.28;;;;;;;18.61;52.15;102512.38;6273048;22;20023;-83
2021/03/23 17:58:37;;;;;;;5.82;4.43;;;;;;;18.58;52.06;102506.28;6267367;22;20012;-81
2021/03/23 18:01:04;;;;;;;5.57;4.50;;;;;;;18.59;52.22;102514.09;6272217;22;19996;-82
2021/03/23 18:03:35;;;;;;;7.63;3.90;;;;;;;18.58;52.13;102511.50;6267301;23;20008;-83
2021/03/23 18:06:13;;;;;;;8.48;3.90;;;;;;;18.57;52.29;102513.19;6270198;22;20031;-81
2021/03/23 18:09:07;;;;;;;5.47;4.45;;;;;;;18.57;52.10;102521.00;6270687;22;19984;-81
2021/03/23 18:11:56;;;;;;;5.03;4.20;;;;;;;18.55;52.18;102519.25;6271502;23;20023;-81
2021/03/23 18:14:33;;;;;;;6.57;4.15;;;;;;;18.53;52.05;102519.25;6271193;22;20000;-81
2021/03/23 18:20:30;;;;;;;4.63;4.15;;;;;;;18.49;52.08;102513.13;6272496;23;20043;-80
2021/03/23 18:22:57;;;;;;;4.68;4.20;;;;;;;18.51;52.17;102520.97;6264850;22;20043;-81
2021/03/23 18:25:41;;;;;;;5.88;4.03;;;;;;;18.49;52.01;102515.72;6257519;22;20071;-83
2021/03/23 18:28:09;;;;;;;5.90;4.80;;;;;;;18.49;52.18;102512.25;6266703;23;20007;-78
2021/03/23 18:33:58;;;;;;;5.22;4.60;;;;;;;18.47;52.29;102511.34;6258524;22;20020;-81
2021/03/23 18:36:29;;;;;;;5.10;4.30;;;;;;;18.44;52.32;102509.59;6274445;22;20010;-80
2021/03/23 18:39:01;;;;;;;5.70;4.55;;;;;;;18.46;52.07;102507.84;6262930;22;20043;-80
2021/03/23 18:41:47;;;;;;;5.63;4.53;;;;;;;18.44;52.19;102504.38;6264088;22;20013;-80
2021/03/23 18:54:11;;;;;;;5.10;4.20;;;;;;;18.55;52.29;102507.09;6303164;22;20022;-80
2021/03/23 18:56:44;;;;;;;5.47;4.18;;;;;;;18.56;52.48;102508.84;6242716;22;20067;-80
2021/03/23 18:59:49;;;;;;;6.63;4.47;;;;;;;18.60;52.59;102512.38;6241623;22;19993;-81
2021/03/23 19:05:30;;;;;;;5.75;4.13;;;;;;;18.62;52.46;102503.72;6261901;22;19921;-82
2021/03/23 19:07:57;;;;;;;4.75;3.88;;;;;;;18.60;52.81;102497.59;6303944;22;20042;-83
2021/03/23 19:10:51;;;;;;;5.47;3.92;;;;;;;18.62;52.65;102502.84;6268880;22;20008;-82
2021/03/23 19:17:17;;;;;;;4.50;3.95;;;;;;;18.57;52.90;102501.91;6279468;22;20034;31
2021/03/23 19:19:58;;;;;;;5.10;4.30;;;;;;;18.53;52.87;102492.28;6240151;23;20000;-82
2021/03/23 19:23:11;;;;;;;5.15;4.00;;;;;;;18.53;52.87;102490.56;6248527;22;20048;-85
2021/03/23 19:31:24;;;;;;;4.47;3.78;;;;;;;18.47;52.96;102483.53;6296993;22;20020;-82
2021/03/23 19:37:57;;;;;;;7.03;3.65;;;;;;;18.48;52.91;102489.63;6304489;22;20005;-82
2021/03/23 19:40:37;;;;;;;4.88;4.18;;;;;;;18.45;53.08;102484.38;6278458;22;20007;-82
2021/03/23 19:43:08;;;;;;;4.60;4.05;;;;;;;18.45;52.89;102492.19;6275463;22;20003;-83
2021/03/23 19:51:23;;;;;;;4.03;3.47;;;;;;;18.42;52.83;102493.03;6296247;22;20032;-81
2021/03/23 19:54:16;;;;;;;4.55;3.95;;;;;;;18.44;52.89;102496.56;6277201;22;20000;-81
2021/03/23 19:56:43;;;;;;;5.65;3.83;;;;;;;18.43;52.97;102502.59;6275885;22;19996;-81
2021/03/23 19:59:09;;;;;;;4.38;3.80;;;;;;;18.40;52.64;102492.16;6231211;23;20035;-81
2021/03/23 20:01:42;;;;;;;4.47;4.07;;;;;;;18.40;52.90;102488.63;6213939;23;20000;-82
2021/03/23 20:04:52;;;;;;;5.03;4.28;;;;;;;18.42;52.82;102497.34;6246310;22;20100;-83
2021/03/23 20:07:33;;;;;;;4.55;3.92;;;;;;;18.39;52.73;102492.13;6262894;22;20004;-82
2021/03/23 20:10:33;;;;;;;4.60;4.20;;;;;;;18.40;52.68;102499.97;6253300;22;20024;-81
2021/03/23 20:13:03;;;;;;;5.65;4.00;;;;;;;18.40;52.84;102497.34;6177537;22;20087;-82
2021/03/23 20:19:55;;;;;;;4.65;4.13;;;;;;;18.40;52.70;102488.63;6271397;23;20026;-81
2021/03/23 20:22:43;;;;;;;5.22;4.32;;;;;;;18.37;52.59;102488.63;6155981;23;20010;-81
2021/03/23 20:25:36;;;;;;;6.60;4.07;;;;;;;18.35;52.64;102488.59;6288005;22;20027;-81
2021/03/23 20:28:03;;;;;;;6.05;4.05;;;;;;;18.35;52.58;102487.72;6261969;22;20020;-81
2021/03/23 20:37:08;;;;;;;5.15;4.15;;;;;;;18.34;52.61;102486.84;6240642;23;20074;-80
2021/03/23 20:40:14;;;;;;;4.97;4.22;;;;;;;18.36;52.56;102485.13;6242547;22;20523;-81
2021/03/23 20:43:14;;;;;;;4.88;4.10;;;;;;;18.32;52.59;102482.47;6299097;22;20012;-81
2021/03/23 20:45:44;;;;;;;4.78;4.22;;;;;;;18.33;52.29;102486.81;6283727;22;19984;-82
2021/03/23 20:48:21;;;;;;;4.50;4.07;;;;;;;18.30;52.60;102478.09;6285984;22;19991;-80
2021/03/23 20:54:49;;;;;;;7.47;4.22;;;;;;;18.33;52.63;102485.06;6302713;22;20010;-80
2021/03/23 20:57:16;;;;;;;4.55;4.00;;;;;;;18.30;52.57;102478.09;6271435;22;20011;-81
2021/03/23 21:00:01;;;;;;;4.72;4.22;;;;;;;18.30;52.61;102475.50;6276548;22;20006;-81
2021/03/23 21:03:02;;;;;;;4.85;4.15;;;;;;;18.34;52.37;102483.38;6300189;22;20007;-81
2021/03/23 21:05:37;;;;;;;4.78;4.20;;;;;;;18.30;52.57;102474.63;6209851;23;20069;-80
2021/03/23 21:08:29;;;;;;;6.45;4.35;;;;;;;18.32;52.43;102483.34;6211171;23;20005;-81
2021/03/23 21:11:34;;;;;;;4.30;3.85;;;;;;;18.30;52.60;102472.88;6187598;22;20003;-82
2021/03/23 21:14:22;;;;;;;5.88;3.97;;;;;;;18.28;52.50;102482.41;6181620;23;20052;-81
2021/03/23 21:17:15;;;;;;;4.63;4.13;;;;;;;18.31;52.40;102476.34;6178665;23;20012;-81
2021/03/23 21:19:42;;;;;;;4.15;3.75;;;;;;;18.30;52.48;102480.69;6182961;23;20011;-81
2021/03/23 21:22:35;;;;;;;4.55;4.10;;;;;;;18.30;52.44;102478.09;6207258;23;20031;-80
2021/03/23 21:27:52;;;;;;;4.75;4.30;;;;;;;18.25;52.40;102468.50;6298723;22;20065;-80
2021/03/23 21:34:02;;;;;;;5.70;4.30;;;;;;;18.26;52.39;102478.91;6302863;22;20049;-81
2021/03/23 21:39:44;;;;;;;5.53;4.90;;;;;;;18.26;52.51;102467.63;6294779;22;20028;-81
2021/03/23 21:45:01;;;;;;;5.72;4.55;;;;;;;18.24;52.56;102461.50;6293371;22;20018;-80
2021/03/23 21:48:32;;;;;;;6.43;4.80;;;;;;;18.24;52.33;102470.19;6264991;22;19996;-82
2021/03/23 21:54:19;;;;;;;5.03;4.45;;;;;;;18.25;52.49;102468.50;6206994;22;20062;-81
2021/03/23 21:59:30;;;;;;;5.15;4.65;;;;;;;18.18;52.28;102466.63;6295562;22;20026;-79
2021/03/23 22:02:02;;;;;;;6.43;5.03;;;;;;;18.13;52.11;102463.09;6214341;23;20047;-79
2021/03/23 22:04:33;;;;;;;5.07;4.57;;;;;;;18.10;52.49;102463.94;6229596;22;20451;-79
2021/03/23 22:07:10;;;;;;;5.82;4.82;;;;;;;18.09;52.61;102469.97;6209336;23;20051;-79
2021/03/23 22:09:36;;;;;;;5.03;4.53;;;;;;;18.06;52.61;102464.75;6235023;23;20076;-79
2021/03/23 22:12:05;;;;;;;5.20;4.70;;;;;;;18.07;52.53;102471.69;6277810;22;20068;-79
2021/03/23 22:15:00;;;;;;;5.88;4.68;;;;;;;18.02;52.43;102469.00;6211029;23;20008;-79
2021/03/23 22:17:28;;;;;;;5.70;4.72;;;;;;;18.01;52.49;102463.81;6180382;23;20008;-79
2021/03/23 22:19:54;;;;;;;4.88;4.38;;;;;;;18.00;52.68;102457.69;6237219;22;20036;-79
2021/03/23 22:22:21;;;;;;;5.60;4.68;;;;;;;17.99;52.49;102457.69;6204627;23;20016;-79
2021/03/23 22:27:21;;;;;;;5.28;4.38;;;;;;;17.96;52.41;102453.28;6287438;22;20030;-79
2021/03/23 22:29:48;;;;;;;5.05;4.55;;;;;;;17.97;52.38;102452.47;6265077;22;20012;-79